createdAt,value
2019-05-02T00:02:23.950Z,8.78
2019-05-02T00:04:55.954Z,8.71
2019-05-02T00:07:23.101Z,8.71
2019-05-02T00:09:53.690Z,8.60
2019-05-02T00:12:24.897Z,8.65
2019-05-02T00:15:01.715Z,8.55
2019-05-02T00:17:28.588Z,8.41
2019-05-02T00:19:58.631Z,8.51
2019-05-02T00:22:29.021Z,8.51
2019-05-02T00:24:59.007Z,8.47
2019-05-02T00:27:32.846Z,8.49
2019-05-02T00:30:00.799Z,8.36
2019-05-02T00:32:31.180Z,8.43
2019-05-02T00:35:01.267Z,8.44
2019-05-02T00:37:32.804Z,8.43
2019-05-02T00:40:03.058Z,8.39
2019-05-02T00:42:33.177Z,8.32
2019-05-02T00:45:03.235Z,8.33
2019-05-02T00:47:34.876Z,8.44
2019-05-02T00:50:11.379Z,8.44
2019-05-02T00:52:38.871Z,8.50
2019-05-02T00:55:08.909Z,8.48
2019-05-02T00:57:38.887Z,8.55
2019-05-02T01:00:13.470Z,8.19
2019-05-02T01:02:49.263Z,8.11
2019-05-02T01:05:19.211Z,8.19
2019-05-02T01:07:49.295Z,8.11
2019-05-02T01:10:21.249Z,8.20
2019-05-02T01:12:51.107Z,8.16
2019-05-02T01:15:21.153Z,7.97
2019-05-02T01:17:51.183Z,8.04
2019-05-02T01:20:22.142Z,7.82
2019-05-02T01:22:53.646Z,7.82
2019-05-02T01:25:23.851Z,7.77
2019-05-02T01:28:17.726Z,7.94
2019-05-02T01:31:01.617Z,7.83
2019-05-02T01:33:36.746Z,7.79
2019-05-02T01:36:08.160Z,7.88
2019-05-02T01:38:41.177Z,7.43
2019-05-02T01:41:11.222Z,7.71
2019-05-02T01:43:41.363Z,7.51
2019-05-02T01:46:11.625Z,7.59
2019-05-02T01:48:45.890Z,7.53
2019-05-02T01:51:13.639Z,7.44
2019-05-02T01:53:43.632Z,7.44
2019-05-02T01:56:13.614Z,7.47
2019-05-02T01:58:43.598Z,7.40
2019-05-02T02:01:16.262Z,7.28
2019-05-02T02:03:46.836Z,6.95
2019-05-02T02:06:17.254Z,6.93
2019-05-02T02:08:47.322Z,7.08
2019-05-02T02:11:17.314Z,7.01
2019-05-02T02:13:47.346Z,7.08
2019-05-02T02:16:17.316Z,7.28
2019-05-02T02:19:03.958Z,6.91
2019-05-02T02:21:43.430Z,6.93
2019-05-02T02:24:21.173Z,7.08
2019-05-02T02:26:49.934Z,6.79
2019-05-02T02:29:20.961Z,6.87
2019-05-02T02:31:50.961Z,7.03
2019-05-02T02:34:29.079Z,6.78
2019-05-02T02:36:53.011Z,6.77
2019-05-02T02:39:23.010Z,6.80
2019-05-02T02:41:54.206Z,6.82
2019-05-02T02:44:45.959Z,6.72
2019-05-02T02:47:19.059Z,6.81
2019-05-02T02:49:47.829Z,6.70
2019-05-02T02:52:17.811Z,6.74
2019-05-02T02:54:47.854Z,6.74
2019-05-02T02:57:25.659Z,6.80
2019-05-02T02:59:49.514Z,6.74
2019-05-02T03:02:19.507Z,6.57
2019-05-02T03:04:49.488Z,6.57
2019-05-02T03:07:25.692Z,6.48
2019-05-02T03:09:51.358Z,6.63
2019-05-02T03:12:23.069Z,6.49
2019-05-02T03:14:54.925Z,6.39
2019-05-02T03:17:26.398Z,6.44
2019-05-02T03:20:01.095Z,6.29
2019-05-02T03:22:28.492Z,6.14
2019-05-02T03:24:58.582Z,6.21
2019-05-02T03:27:29.731Z,6.17
2019-05-02T03:30:00.303Z,6.33
2019-05-02T03:32:35.225Z,6.45
2019-05-02T03:35:02.551Z,6.35
2019-05-02T03:37:32.593Z,6.18
2019-05-02T03:40:02.646Z,6.18
2019-05-02T03:42:43.665Z,6.12
2019-05-02T03:45:05.599Z,5.95
2019-05-02T03:47:36.775Z,6.24
2019-05-02T03:50:09.268Z,6.10
2019-05-02T03:52:43.958Z,5.94
2019-05-02T03:55:12.371Z,5.91
2019-05-02T03:57:42.557Z,5.54
2019-05-02T04:00:21.338Z,5.37
2019-05-02T04:02:44.819Z,5.51
2019-05-02T04:05:14.877Z,5.52
2019-05-02T04:07:45.286Z,5.33
2019-05-02T04:10:21.471Z,5.33
2019-05-02T04:12:58.057Z,5.21
2019-05-02T04:15:28.796Z,5.12
2019-05-02T04:17:56.311Z,4.88
2019-05-02T04:20:26.596Z,5.14
2019-05-02T04:22:56.640Z,4.81
2019-05-02T04:25:28.020Z,4.79
2019-05-02T04:28:00.130Z,5.09
2019-05-02T04:30:30.117Z,5.04
2019-05-02T04:33:00.390Z,4.63
2019-05-02T04:35:34.892Z,4.96
2019-05-02T04:38:08.026Z,4.88
2019-05-02T04:40:35.084Z,5.12
2019-05-02T04:43:08.151Z,5.09
2019-05-02T04:45:51.940Z,4.94
2019-05-02T04:48:10.308Z,4.69
2019-05-02T04:50:40.287Z,4.71
2019-05-02T04:53:10.329Z,4.96
2019-05-02T04:55:40.307Z,5.02
2019-05-02T04:58:10.280Z,4.86
2019-05-02T05:00:45.185Z,4.92
2019-05-02T05:03:15.443Z,4.78
2019-05-02T05:05:48.230Z,4.88
2019-05-02T05:08:26.396Z,4.94
2019-05-02T05:10:51.778Z,4.82
2019-05-02T05:13:23.338Z,5.00
2019-05-02T05:15:53.524Z,5.08
2019-05-02T05:18:23.557Z,4.88
2019-05-02T05:20:54.320Z,4.93
2019-05-02T05:23:28.828Z,4.89
2019-05-02T05:26:03.339Z,5.13
2019-05-02T05:28:35.059Z,5.18
2019-05-02T05:31:02.832Z,5.10
2019-05-02T05:33:32.878Z,5.10
2019-05-02T05:36:02.925Z,5.01
2019-05-02T05:38:35.711Z,4.84
2019-05-02T05:41:08.951Z,4.94
2019-05-02T05:43:37.970Z,5.07
2019-05-02T05:46:12.965Z,5.30
2019-05-02T05:48:40.873Z,5.13
2019-05-02T05:51:11.894Z,5.05
2019-05-02T05:53:42.769Z,5.22
2019-05-02T05:56:12.721Z,4.93
2019-05-02T05:58:48.045Z,5.13
2019-05-02T06:01:14.424Z,5.29
2019-05-02T06:03:45.073Z,5.30
2019-05-02T06:06:22.393Z,5.18
2019-05-02T06:08:49.156Z,5.07
2019-05-02T06:11:19.964Z,5.13
2019-05-02T06:13:50.810Z,5.24
2019-05-02T06:16:20.827Z,5.42
2019-05-02T06:18:50.824Z,5.39
2019-05-02T06:21:20.825Z,5.21
2019-05-02T06:23:50.807Z,5.18
2019-05-02T06:26:20.776Z,5.21
2019-05-02T06:28:50.812Z,5.34
2019-05-02T06:31:20.790Z,5.43
2019-05-02T06:33:50.778Z,5.55
2019-05-02T06:36:20.813Z,5.29
2019-05-02T06:38:52.174Z,5.59
2019-05-02T06:41:22.502Z,5.68
2019-05-02T06:43:52.486Z,5.64
2019-05-02T06:46:27.621Z,5.43
2019-05-02T06:48:54.265Z,5.71
2019-05-02T06:51:24.241Z,6.14
2019-05-02T06:53:54.271Z,6.32
2019-05-02T06:56:24.240Z,6.00
2019-05-02T06:58:54.225Z,6.20
2019-05-02T07:01:24.278Z,6.08
2019-05-02T07:03:54.324Z,5.94
2019-05-02T07:06:24.747Z,5.76
2019-05-02T07:08:55.224Z,5.94
2019-05-02T07:11:25.247Z,6.06
2019-05-02T07:13:55.338Z,5.97
2019-05-02T07:16:37.579Z,5.77
2019-05-02T07:19:00.404Z,5.67
2019-05-02T07:21:30.371Z,5.93
2019-05-02T07:24:00.607Z,5.96
2019-05-02T07:26:31.241Z,6.16
2019-05-02T07:29:01.212Z,6.37
2019-05-02T07:31:31.327Z,6.26
2019-05-02T07:34:01.303Z,6.51
2019-05-02T07:36:36.279Z,6.68
2019-05-02T07:39:05.243Z,7.25
2019-05-02T07:41:37.208Z,7.48
2019-05-02T07:44:06.794Z,7.75
2019-05-02T07:46:36.784Z,7.07
2019-05-02T07:49:07.096Z,7.06
2019-05-02T07:51:37.234Z,7.16
2019-05-02T07:54:07.253Z,7.23
2019-05-02T07:56:37.236Z,7.51
2019-05-02T07:59:07.302Z,7.43
2019-05-02T08:01:37.531Z,7.29
2019-05-02T08:04:11.102Z,7.80
2019-05-02T08:06:40.236Z,7.42
2019-05-02T08:09:11.515Z,7.23
2019-05-02T08:11:41.660Z,7.51
2019-05-02T08:14:11.778Z,8.06
2019-05-02T08:16:41.755Z,8.17
2019-05-02T08:19:11.798Z,8.04
2019-05-02T08:21:41.772Z,7.52
2019-05-02T08:24:11.805Z,7.34
2019-05-02T08:26:58.362Z,7.79
2019-05-02T08:29:28.786Z,7.60
2019-05-02T08:31:59.267Z,8.14
2019-05-02T08:34:31.008Z,8.85
2019-05-02T08:37:03.160Z,8.48
2019-05-02T08:39:34.859Z,7.98
2019-05-02T08:42:05.931Z,9.03
2019-05-02T08:44:49.604Z,9.06
2019-05-02T09:03:02.703Z,9.35
2019-05-02T09:05:30.425Z,9.32
2019-05-02T09:08:00.440Z,9.48
2019-05-02T09:10:31.574Z,10.08
2019-05-02T09:13:02.679Z,10.17
2019-05-02T09:15:35.196Z,10.81
2019-05-02T09:18:04.594Z,10.16
2019-05-02T09:20:34.592Z,10.47
2019-05-02T09:23:04.709Z,10.47
2019-05-02T09:25:36.307Z,10.72
2019-05-02T09:28:06.428Z,10.10
2019-05-02T09:30:36.524Z,9.90
2019-05-02T09:33:06.800Z,10.41
2019-05-02T09:35:37.861Z,10.64
2019-05-02T09:38:07.859Z,11.52
2019-05-02T09:40:37.862Z,11.02
2019-05-02T09:43:07.908Z,9.88
2019-05-02T09:45:41.009Z,10.38
2019-05-02T09:48:09.631Z,9.54
2019-05-02T09:50:39.630Z,10.26
2019-05-02T09:53:13.026Z,11.31
2019-05-02T09:55:49.105Z,12.37
2019-05-02T09:58:18.931Z,12.46
2019-05-02T10:00:52.600Z,11.54
2019-05-02T10:03:22.768Z,11.23
2019-05-02T10:05:52.955Z,12.17
2019-05-02T10:08:23.177Z,11.48
2019-05-02T10:10:53.414Z,11.31
2019-05-02T10:13:23.422Z,12.39
2019-05-02T10:15:53.471Z,11.95
2019-05-02T10:18:28.728Z,11.46
2019-05-02T10:20:55.891Z,10.85
2019-05-02T10:23:26.128Z,11.87
2019-05-02T10:25:56.223Z,12.99
2019-05-02T10:28:26.243Z,12.70
2019-05-02T10:30:56.834Z,10.98
2019-05-02T10:33:33.636Z,12.34
2019-05-02T10:36:00.130Z,11.96
2019-05-02T10:38:32.371Z,13.43
2019-05-02T10:41:04.589Z,11.41
2019-05-02T10:43:33.990Z,11.64
2019-05-02T10:46:06.064Z,11.60
2019-05-02T10:48:37.689Z,12.10
2019-05-02T10:51:26.329Z,12.10
2019-05-02T10:53:57.669Z,11.99
2019-05-02T10:56:27.729Z,11.17
2019-05-02T10:58:57.777Z,12.00
2019-05-02T11:01:29.514Z,11.47
2019-05-02T11:04:10.022Z,12.30
2019-05-02T11:06:42.614Z,12.12
2019-05-02T11:09:16.843Z,13.32
2019-05-02T11:11:44.667Z,14.30
2019-05-02T11:14:32.472Z,11.91
2019-05-02T11:17:09.060Z,11.75
2019-05-02T11:19:43.254Z,12.83
2019-05-02T11:22:13.244Z,13.20
2019-05-02T11:24:43.232Z,13.64
2019-05-02T11:27:13.357Z,13.48
2019-05-02T11:29:43.473Z,12.99
2019-05-02T11:32:13.497Z,13.81
2019-05-02T11:34:43.466Z,12.90
2019-05-02T11:37:13.586Z,13.35
2019-05-02T11:39:50.134Z,14.71
2019-05-02T11:42:17.786Z,14.53
2019-05-02T11:44:46.988Z,13.52
2019-05-02T11:47:22.738Z,12.71
2019-05-02T11:49:52.090Z,11.69
2019-05-02T11:52:22.601Z,13.33
2019-05-02T11:54:54.217Z,13.65
2019-05-02T11:57:28.516Z,15.21
2019-05-02T11:59:59.332Z,14.33
2019-05-02T12:02:35.905Z,11.95
2019-05-02T12:05:12.802Z,13.72
2019-05-02T12:07:42.817Z,13.07
2019-05-02T12:10:13.366Z,12.44
2019-05-02T12:12:43.425Z,13.14
2019-05-02T12:15:13.763Z,13.67
2019-05-02T12:17:43.798Z,14.96
2019-05-02T12:20:13.901Z,14.36
2019-05-02T12:22:43.905Z,15.35
2019-05-02T12:25:14.004Z,15.37
2019-05-02T12:27:44.024Z,15.46
2019-05-02T12:30:14.747Z,13.45
2019-05-02T12:32:44.761Z,13.80
2019-05-02T12:35:14.797Z,14.20
2019-05-02T12:37:46.988Z,13.53
2019-05-02T12:40:16.562Z,14.74
2019-05-02T12:42:46.629Z,14.99
2019-05-02T12:45:16.960Z,14.91
2019-05-02T12:47:46.998Z,14.63
2019-05-02T12:50:17.225Z,14.62
2019-05-02T12:52:47.254Z,13.05
2019-05-02T12:55:17.386Z,14.05
2019-05-02T12:57:47.378Z,12.95
2019-05-02T13:00:18.724Z,11.66
2019-05-02T13:02:53.329Z,12.42
2019-05-02T13:05:23.354Z,12.20
2019-05-02T13:07:55.327Z,13.14
2019-05-02T13:10:26.773Z,12.87
2019-05-02T13:12:56.935Z,13.96
2019-05-02T13:15:27.581Z,14.25
2019-05-02T13:17:57.551Z,13.80
2019-05-02T13:20:29.388Z,13.49
2019-05-02T13:23:04.783Z,13.08
2019-05-02T13:25:36.964Z,12.64
2019-05-02T13:28:06.836Z,12.69
2019-05-02T13:30:42.943Z,13.56
2019-05-02T13:33:12.256Z,13.50
2019-05-02T13:35:51.778Z,13.67
2019-05-02T13:38:22.427Z,14.27
2019-05-02T13:40:52.731Z,13.32
2019-05-02T13:43:24.539Z,12.85
2019-05-02T13:45:58.916Z,12.85
2019-05-02T13:48:29.367Z,12.76
2019-05-02T13:50:59.822Z,12.62
2019-05-02T13:53:32.023Z,12.74
2019-05-02T13:56:22.010Z,12.02
2019-05-02T13:58:52.191Z,11.49
2019-05-02T14:01:22.812Z,12.24
2019-05-02T14:03:55.642Z,12.33
2019-05-02T14:06:29.870Z,12.29
2019-05-02T14:08:58.970Z,12.25
2019-05-02T14:11:43.489Z,12.55
2019-05-02T14:14:13.659Z,12.30
2019-05-02T14:16:43.649Z,12.25
2019-05-02T14:19:13.742Z,12.78
2019-05-02T14:21:43.776Z,12.22
2019-05-02T14:24:13.775Z,11.63
2019-05-02T14:26:43.887Z,11.94
2019-05-02T14:29:16.209Z,12.56
2019-05-02T14:31:46.744Z,13.12
2019-05-02T14:34:35.413Z,12.75
2019-05-02T14:37:05.475Z,12.75
2019-05-02T14:39:35.454Z,12.99
2019-05-02T14:42:05.666Z,12.11
2019-05-02T14:45:01.439Z,12.16
2019-05-02T14:47:10.098Z,11.30
2019-05-02T14:49:42.908Z,11.25
2019-05-02T14:52:13.037Z,10.51
2019-05-02T14:54:47.778Z,10.72
2019-05-02T14:57:17.086Z,11.24
2019-05-02T14:59:50.377Z,12.18
2019-05-02T15:02:22.933Z,11.93
2019-05-02T15:04:53.035Z,12.25
2019-05-02T15:07:26.696Z,11.65
2019-05-02T15:09:57.176Z,12.74
2019-05-02T15:12:26.738Z,12.95
2019-05-02T15:14:58.626Z,13.15
2019-05-02T15:17:36.253Z,12.77
2019-05-02T15:20:00.116Z,12.01
2019-05-02T15:22:33.092Z,12.05
2019-05-02T15:25:02.705Z,10.89
2019-05-02T15:27:40.247Z,11.52
2019-05-02T15:30:07.359Z,11.34
2019-05-02T15:32:44.948Z,11.20
2019-05-02T15:35:28.974Z,12.29
2019-05-02T15:38:02.436Z,12.25
2019-05-02T15:40:32.473Z,11.86
2019-05-02T15:43:09.015Z,11.61
2019-05-02T15:45:36.746Z,11.82
2019-05-02T15:48:06.351Z,11.30
2019-05-02T15:50:36.342Z,10.77
2019-05-02T15:53:10.060Z,10.75
2019-05-02T15:55:42.120Z,10.31
2019-05-02T15:58:25.990Z,11.12
2019-05-02T16:01:07.449Z,11.25
2019-05-02T16:03:45.858Z,10.97
2019-05-02T16:06:16.360Z,10.92
2019-05-02T16:08:46.678Z,10.84
2019-05-02T16:11:18.234Z,10.81
2019-05-02T16:13:54.067Z,10.76
2019-05-02T16:16:22.264Z,10.80
2019-05-02T16:18:52.649Z,10.20
2019-05-02T16:21:28.920Z,10.15
2019-05-02T16:24:14.987Z,9.49
2019-05-02T16:26:46.932Z,9.59
2019-05-02T16:29:23.741Z,9.73
2019-05-02T16:31:55.037Z,9.94
2019-05-02T16:34:22.702Z,9.98
2019-05-02T16:36:54.405Z,9.73
2019-05-02T16:39:24.595Z,9.47
2019-05-02T16:41:54.719Z,9.21
2019-05-02T16:44:24.761Z,9.36
2019-05-02T16:46:54.783Z,9.49
2019-05-02T16:49:24.824Z,9.61
2019-05-02T16:51:57.342Z,9.26
2019-05-02T16:54:26.609Z,9.39
2019-05-02T16:56:58.580Z,9.48
2019-05-02T16:59:28.372Z,9.89
2019-05-02T17:01:59.604Z,10.21
2019-05-02T17:04:31.780Z,10.16
2019-05-02T17:07:05.764Z,10.18
2019-05-02T17:09:54.640Z,9.85
2019-05-02T17:12:24.714Z,9.73
2019-05-02T17:14:59.141Z,9.20
2019-05-02T17:17:33.248Z,9.31
2019-05-02T17:20:02.524Z,9.16
2019-05-02T17:22:32.681Z,9.20
2019-05-02T17:25:05.857Z,9.12
2019-05-02T17:27:34.560Z,8.93
2019-05-02T17:30:07.478Z,9.37
2019-05-02T17:32:37.800Z,9.65
2019-05-02T17:35:11.393Z,9.66
2019-05-02T17:37:48.638Z,9.35
2019-05-02T17:40:16.837Z,9.29
2019-05-02T17:42:44.748Z,9.35
2019-05-02T17:45:15.589Z,9.32
2019-05-02T17:47:47.197Z,9.02
2019-05-02T17:50:35.522Z,9.14
2019-05-02T17:53:07.496Z,8.85
2019-05-02T17:55:40.512Z,9.12
2019-05-02T17:58:12.377Z,9.17
2019-05-02T18:00:43.112Z,9.15
2019-05-02T18:03:15.424Z,9.19
2019-05-02T18:05:45.174Z,9.22
2019-05-02T18:08:15.167Z,8.79
2019-05-02T18:10:45.253Z,8.78
2019-05-02T18:13:15.234Z,8.60
2019-05-02T18:15:45.300Z,8.58
2019-05-02T18:18:15.270Z,8.43
2019-05-02T18:20:46.603Z,8.32
2019-05-02T18:23:18.755Z,8.21
2019-05-02T18:25:48.507Z,8.38
2019-05-02T18:28:24.514Z,7.92
2019-05-02T18:30:52.332Z,7.90
2019-05-02T18:33:22.654Z,7.87
2019-05-02T18:35:53.830Z,7.97
2019-05-02T18:38:24.694Z,7.86
2019-05-02T18:40:55.418Z,7.57
2019-05-02T18:43:25.495Z,7.56
2019-05-02T18:45:58.040Z,7.71
2019-05-02T18:48:27.181Z,7.36
2019-05-02T18:50:57.309Z,7.15
2019-05-02T18:53:27.524Z,7.27
2019-05-02T18:56:01.777Z,6.88
2019-05-02T18:58:31.942Z,7.09
2019-05-02T19:01:03.527Z,6.73
2019-05-02T19:03:33.643Z,6.71
2019-05-02T19:06:04.878Z,6.85
2019-05-02T19:08:45.366Z,6.82
2019-05-02T19:11:12.242Z,6.76
2019-05-02T19:13:42.896Z,6.82
2019-05-02T19:16:13.214Z,6.54
2019-05-02T19:18:43.287Z,6.58
2019-05-02T19:21:13.356Z,6.09
2019-05-02T19:23:43.356Z,6.35
2019-05-02T19:26:15.408Z,6.29
2019-05-02T19:28:48.354Z,6.16
2019-05-02T19:31:18.681Z,6.11
2019-05-02T19:33:48.780Z,6.18
2019-05-02T19:36:24.362Z,6.02
2019-05-02T19:38:52.073Z,5.93
2019-05-02T19:41:22.381Z,5.71
2019-05-02T19:43:53.385Z,5.64
2019-05-02T19:46:31.540Z,5.57
2019-05-02T19:48:55.286Z,5.29
2019-05-02T19:51:28.079Z,5.25
2019-05-02T19:53:59.549Z,4.91
2019-05-02T19:56:33.382Z,4.96
2019-05-02T19:59:02.560Z,4.94
2019-05-02T20:01:32.541Z,4.91
2019-05-02T20:04:06.050Z,4.82
2019-05-02T20:06:34.545Z,4.67
2019-05-02T20:09:08.325Z,4.46
2019-05-02T20:11:40.053Z,4.50
2019-05-02T20:14:10.116Z,4.36
2019-05-02T20:16:47.784Z,4.24
2019-05-02T20:19:25.317Z,4.24
2019-05-02T20:21:57.160Z,4.35
2019-05-02T20:24:27.694Z,4.17
2019-05-02T20:26:57.645Z,4.11
2019-05-02T20:29:27.709Z,4.10
2019-05-02T20:31:57.736Z,3.93
2019-05-02T20:34:27.711Z,4.00
2019-05-02T20:36:57.740Z,3.95
2019-05-02T20:39:27.730Z,3.81
2019-05-02T20:41:57.705Z,3.72
2019-05-02T20:44:27.712Z,3.62
2019-05-02T20:46:57.789Z,3.54
2019-05-02T20:49:27.825Z,3.62
2019-05-02T20:51:57.898Z,3.57
2019-05-02T20:54:28.017Z,3.60
2019-05-02T20:56:58.002Z,3.55
2019-05-02T20:59:28.023Z,3.50
2019-05-02T21:01:58.093Z,3.45
2019-05-02T21:04:28.163Z,3.31
2019-05-02T21:07:02.586Z,3.10
2019-05-02T21:09:52.783Z,3.30
2019-05-02T21:12:23.361Z,3.26
2019-05-02T21:14:53.350Z,3.31
2019-05-02T21:17:23.442Z,3.22
2019-05-02T21:19:53.491Z,3.10
2019-05-02T21:22:26.557Z,2.97
2019-05-02T21:24:56.623Z,3.00
2019-05-02T21:27:26.701Z,2.90
2019-05-02T21:29:57.628Z,2.78
2019-05-02T21:32:29.178Z,2.79
2019-05-02T21:34:59.153Z,2.71
2019-05-02T21:37:29.183Z,2.49
2019-05-02T21:39:59.171Z,2.41
2019-05-02T21:42:29.161Z,2.49
2019-05-02T21:44:59.200Z,2.62
2019-05-02T21:47:29.203Z,2.58
2019-05-02T21:50:06.764Z,2.39
2019-05-02T21:52:44.114Z,2.37
2019-05-02T21:55:33.734Z,2.23
2019-05-02T21:58:03.717Z,2.23
2019-05-02T22:00:52.640Z,2.06
2019-05-02T22:03:24.305Z,2.17
2019-05-02T22:05:54.300Z,2.03
2019-05-02T22:08:24.326Z,1.85
2019-05-02T22:10:54.298Z,1.76
2019-05-02T22:13:24.346Z,1.68
2019-05-02T22:15:54.334Z,1.58
2019-05-02T22:18:24.358Z,1.56
2019-05-02T22:20:55.295Z,1.57
2019-05-02T22:23:25.364Z,1.65
2019-05-02T22:25:56.447Z,1.47
2019-05-02T22:28:26.471Z,1.32
2019-05-02T22:30:56.445Z,1.35
2019-05-02T22:33:26.502Z,1.38
2019-05-02T22:35:56.471Z,1.32
2019-05-02T22:38:33.550Z,1.22
2019-05-02T22:41:03.691Z,1.22
2019-05-02T22:43:34.848Z,1.04
2019-05-02T22:46:06.433Z,1.13
2019-05-02T22:48:36.429Z,1.04
2019-05-02T22:51:06.489Z,1.04
2019-05-02T22:53:36.461Z,1.08
2019-05-02T22:56:06.525Z,1.06
2019-05-02T22:58:36.521Z,1.02
2019-05-02T23:01:07.083Z,0.96
2019-05-02T23:03:37.076Z,0.96
2019-05-02T23:06:07.157Z,1.00
2019-05-02T23:08:37.129Z,0.91
2019-05-02T23:11:07.218Z,0.94
2019-05-02T23:13:37.250Z,0.82
2019-05-02T23:18:52.032Z,0.84
2019-05-02T23:21:22.231Z,0.70
2019-05-02T23:23:53.923Z,0.39
2019-05-02T23:26:34.233Z,0.60
2019-05-02T23:29:06.244Z,0.53
2019-05-02T23:31:36.224Z,0.45
2019-05-02T23:34:06.270Z,0.49
2019-05-02T23:36:36.397Z,0.37
2019-05-02T23:39:09.342Z,0.39
2019-05-02T23:41:42.088Z,0.12
2019-05-02T23:44:12.375Z,0.20
2019-05-02T23:46:42.567Z,0.26
2019-05-02T23:49:12.982Z,0.15
2019-05-02T23:51:42.989Z,0.14
2019-05-02T23:54:13.190Z,0.10
2019-05-02T23:56:43.360Z,-0.04
2019-05-02T23:59:13.312Z,-0.04
